Time;durP1;ratioP1;P1;durP2;ratioP2;P2;SDS_P1;SDS_P2;PMS_P1;PMS_P2;Temp;Humidity;BMP_temperature;BMP_pressure;BME280_temperature;BME280_humidity;BME280_pressure;Samples;Min_cycle;Max_cycle;Signal;HPM_P1;HPM_P2
2023/05/22 00:01:25;;;;;;;7.38;4.18;;;;;;;15.79;59.90;94680.41;5003632;28;20220;-68
2023/05/22 00:03:51;;;;;;;6.18;4.00;;;;;;;15.75;60.10;94677.34;5015372;28;20223;-67
2023/05/22 00:06:17;;;;;;;5.68;4.00;;;;;;;15.72;60.15;94677.72;5006932;28;20830;-67
2023/05/22 00:08:43;;;;;;;4.57;3.92;;;;;;;15.71;60.31;94669.94;4998755;28;20246;-69
2023/05/22 00:11:08;;;;;;;4.50;3.67;;;;;;;15.71;60.44;94670.75;5009461;28;20608;-70
2023/05/22 00:13:34;;;;;;;3.95;3.55;;;;;;;15.80;60.13;94674.13;5005828;28;20186;-68
2023/05/22 00:15:59;;;;;;;4.45;3.70;;;;;;;15.91;59.96;94670.13;5001878;28;20226;-68
2023/05/22 00:18:25;;;;;;;6.07;4.03;;;;;;;15.94;59.96;94673.19;5004883;28;20229;-68
2023/05/22 00:20:52;;;;;;;4.10;3.70;;;;;;;15.97;59.59;94669.34;5035281;28;20733;-67
2023/05/22 00:23:18;;;;;;;4.75;3.50;;;;;;;15.98;59.42;94668.31;5007424;28;20292;-67
2023/05/22 00:25:43;;;;;;;3.83;3.35;;;;;;;15.98;59.77;94666.47;5031247;28;20234;-68
2023/05/22 00:28:10;;;;;;;4.15;3.53;;;;;;;16.06;59.29;94669.00;5007419;28;20629;-68
2023/05/22 00:30:35;;;;;;;3.85;3.40;;;;;;;15.97;59.54;94675.44;5003197;28;20298;-67
2023/05/22 00:33:01;;;;;;;4.32;3.28;;;;;;;15.98;58.84;94674.44;5006752;28;20298;-68
2023/05/22 00:35:27;;;;;;;4.65;3.20;;;;;;;15.75;59.84;94676.53;5007471;28;20223;-67
2023/05/22 00:37:53;;;;;;;4.65;3.80;;;;;;;15.77;59.81;94663.88;5002814;28;20184;-67
2023/05/22 00:40:18;;;;;;;4.50;3.85;;;;;;;15.90;59.40;94681.72;5003649;28;20869;-67
2023/05/22 00:42:44;;;;;;;5.35;3.92;;;;;;;15.95;59.40;94674.81;5004316;28;20219;-66
2023/05/22 00:45:10;;;;;;;4.38;4.00;;;;;;;15.99;59.16;94677.91;5003816;28;20284;-68
2023/05/22 00:47:36;;;;;;;4.45;3.67;;;;;;;16.00;58.99;94679.56;5001265;28;20250;-68
2023/05/22 00:50:04;;;;;;;4.70;4.07;;;;;;;16.02;58.94;94678.34;5005857;28;20195;-68
2023/05/22 00:52:30;;;;;;;4.63;3.88;;;;;;;16.04;58.87;94680.81;5008399;28;20207;-68
2023/05/22 00:54:55;;;;;;;4.45;3.97;;;;;;;16.00;58.98;94674.25;5002489;28;20254;-68
2023/05/22 00:57:22;;;;;;;6.07;4.30;;;;;;;16.05;58.79;94675.31;5008661;28;20227;-68
2023/05/22 00:59:47;;;;;;;4.95;4.30;;;;;;;16.02;58.87;94669.56;5003510;28;20368;-68
2023/05/22 01:02:15;;;;;;;4.97;3.60;;;;;;;16.08;58.73;94663.50;5003415;28;20211;-67
2023/05/22 01:04:47;;;;;;;4.60;4.07;;;;;;;16.07;58.64;94662.69;5001349;28;20206;-68
2023/05/22 01:07:13;;;;;;;3.97;3.55;;;;;;;16.10;58.55;94669.44;5005260;28;20986;-70
2023/05/22 01:09:39;;;;;;;4.63;3.72;;;;;;;16.07;58.48;94664.50;5006643;28;20257;-67
2023/05/22 01:12:25;;;;;;;5.32;3.78;;;;;;;16.06;58.86;94662.84;5008696;28;20254;-68
2023/05/22 01:15:22;;;;;;;3.55;3.22;;;;;;;16.08;58.88;94669.59;5005212;28;20289;-68
2023/05/22 01:18:18;;;;;;;3.95;3.42;;;;;;;16.02;59.09;94666.94;5003432;28;20699;-69
2023/05/22 01:20:51;;;;;;;4.10;3.70;;;;;;;15.98;59.37;94666.47;4996803;28;20222;-68
2023/05/22 01:23:35;;;;;;;4.43;3.67;;;;;;;16.04;59.20;94662.25;5003966;28;20188;-67
2023/05/22 01:26:36;;;;;;;3.85;3.45;;;;;;;16.05;59.26;94661.22;5006076;28;20277;-68
2023/05/22 01:29:23;;;;;;;4.15;3.75;;;;;;;16.04;59.33;94664.91;4964006;28;20992;-68
2023/05/22 01:31:50;;;;;;;5.13;4.15;;;;;;;15.95;59.49;94658.09;4972022;28;20239;-68
2023/05/22 01:34:17;;;;;;;4.13;3.65;;;;;;;15.85;59.48;94664.56;4972009;28;20230;-68
2023/05/22 01:36:45;;;;;;;6.18;4.25;;;;;;;15.61;60.77;94662.28;4971682;28;20224;-67
2023/05/22 01:39:11;;;;;;;5.32;4.38;;;;;;;15.47;60.80;94653.41;4960636;28;20599;-68
2023/05/22 01:41:39;;;;;;;4.60;4.00;;;;;;;15.36;60.98;94656.56;4969638;28;20239;-68
2023/05/22 01:44:04;;;;;;;3.70;3.40;;;;;;;15.29;61.42;94647.72;4969151;28;20187;-68
2023/05/22 01:46:30;;;;;;;6.00;4.65;;;;;;;15.44;60.97;94649.31;4981876;28;20295;-68
2023/05/22 01:48:57;;;;;;;4.65;4.15;;;;;;;15.53;60.42;94652.66;4968624;28;20223;-68
2023/05/22 01:51:35;;;;;;;4.70;4.10;;;;;;;15.52;60.54;94658.13;4970903;28;20220;-68
2023/05/22 01:54:17;;;;;;;3.97;3.55;;;;;;;15.54;60.87;94659.59;4984162;28;20226;-68
2023/05/22 01:56:55;;;;;;;6.43;4.28;;;;;;;15.55;61.07;94658.56;4970537;28;20227;-68
2023/05/22 01:59:47;;;;;;;4.50;4.10;;;;;;;15.54;61.10;94653.47;4983176;28;20230;-68
2023/05/22 02:02:16;;;;;;;4.53;4.13;;;;;;;15.49;61.60;94651.38;4968198;28;20184;-69
2023/05/22 02:04:47;;;;;;;4.47;4.07;;;;;;;15.45;61.26;94655.44;4987613;28;20190;-68
2023/05/22 02:07:14;;;;;;;5.57;3.80;;;;;;;15.31;61.83;94651.03;5034616;28;20222;-68
2023/05/22 02:09:40;;;;;;;4.80;4.30;;;;;;;15.37;61.28;94651.09;5006042;28;20234;-68
2023/05/22 02:12:07;;;;;;;4.90;4.40;;;;;;;15.34;61.78;94653.28;5005369;28;20285;-68
2023/05/22 02:14:32;;;;;;;5.38;4.40;;;;;;;15.31;61.53;94649.19;5004304;28;20572;-68
2023/05/22 02:17:00;;;;;;;5.55;4.18;;;;;;;15.31;61.66;94661.63;5003159;28;20194;-68
2023/05/22 02:19:26;;;;;;;4.45;3.97;;;;;;;15.07;61.90;94652.22;5000150;28;20211;-68
2023/05/22 02:21:52;;;;;;;4.90;4.35;;;;;;;15.15;61.94;94658.19;5002196;28;20599;-68
2023/05/22 02:24:17;;;;;;;4.55;4.07;;;;;;;15.18;62.00;94657.84;5003724;28;20220;-68
2023/05/22 02:26:43;;;;;;;5.07;4.40;;;;;;;15.11;62.19;94653.50;4988946;28;20230;-68
2023/05/22 02:29:09;;;;;;;4.75;4.32;;;;;;;15.09;61.85;94656.31;5004434;28;20241;-68
2023/05/22 02:31:34;;;;;;;6.25;4.28;;;;;;;14.91;62.46;94654.09;5006494;28;20206;-69
2023/05/22 02:34:00;;;;;;;5.50;4.40;;;;;;;14.99;62.18;94651.34;5005694;28;20215;-68
2023/05/22 02:36:25;;;;;;;5.05;4.40;;;;;;;14.89;62.66;94658.78;5006692;28;20215;-68
2023/05/22 02:38:51;;;;;;;5.05;4.30;;;;;;;14.93;62.87;94657.38;5004833;28;20219;-67
2023/05/22 02:41:17;;;;;;;5.97;4.70;;;;;;;15.00;62.48;94658.28;5004864;28;20268;-67
2023/05/22 02:43:42;;;;;;;5.00;4.50;;;;;;;14.89;62.56;94650.81;5003567;28;20263;-67
2023/05/22 02:46:08;;;;;;;4.85;3.72;;;;;;;14.96;62.70;94645.59;5007244;28;20876;-67
2023/05/22 02:48:33;;;;;;;8.18;4.20;;;;;;;14.98;62.65;94647.03;5005884;28;20747;-67
2023/05/22 02:50:59;;;;;;;4.60;4.07;;;;;;;15.06;62.13;94643.47;5007829;28;20309;-67
2023/05/22 02:53:24;;;;;;;5.65;4.20;;;;;;;15.06;62.12;94648.75;4999746;28;20235;-67
2023/05/22 02:55:51;;;;;;;4.45;3.75;;;;;;;15.09;61.86;94647.56;4999561;28;20180;-66
2023/05/22 02:58:18;;;;;;;5.28;4.22;;;;;;;15.03;61.64;94645.66;5003618;28;20230;-67
2023/05/22 03:00:44;;;;;;;6.47;4.28;;;;;;;15.04;61.50;94649.94;4998771;28;20273;-68
2023/05/22 03:03:10;;;;;;;4.20;3.80;;;;;;;15.04;61.53;94647.28;4979891;28;20231;-67
2023/05/22 03:05:35;;;;;;;4.93;4.38;;;;;;;15.04;61.76;94647.28;5002598;28;20218;-67
2023/05/22 03:08:01;;;;;;;4.43;4.00;;;;;;;15.02;61.97;94650.13;4984335;28;20195;-67
2023/05/22 03:10:26;;;;;;;4.25;3.85;;;;;;;14.98;62.16;94644.38;4985407;28;20945;-67
2023/05/22 03:12:52;;;;;;;5.72;4.30;;;;;;;14.86;62.80;94648.56;4981845;28;20603;-68
2023/05/22 03:15:18;;;;;;;7.07;4.60;;;;;;;14.85;62.76;94644.25;4985996;28;20274;-68
2023/05/22 03:17:44;;;;;;;5.22;4.28;;;;;;;14.70;63.08;94651.41;4997479;28;20238;-68
2023/05/22 03:20:10;;;;;;;4.80;4.13;;;;;;;14.74;63.05;94653.50;4991445;28;20191;-67
2023/05/22 03:22:35;;;;;;;5.07;4.32;;;;;;;14.80;62.68;94657.22;4978000;28;20172;-70
2023/05/22 03:25:01;;;;;;;5.60;4.57;;;;;;;14.80;62.57;94649.28;4986753;28;20318;-69
2023/05/22 03:27:26;;;;;;;5.15;4.18;;;;;;;14.80;62.53;94657.22;4980745;28;20295;-70
2023/05/22 03:29:52;;;;;;;7.22;4.95;;;;;;;14.70;63.03;94649.59;4998831;28;20219;-71
2023/05/22 03:32:18;;;;;;;5.05;4.40;;;;;;;14.72;62.60;94652.84;4992158;28;20211;-69
2023/05/22 03:34:43;;;;;;;4.97;4.47;;;;;;;14.76;62.39;94648.03;4976614;28;20185;-68
2023/05/22 03:37:09;;;;;;;5.68;5.10;;;;;;;14.82;62.15;94649.91;4996062;28;20219;-67
2023/05/22 03:39:35;;;;;;;7.47;5.40;;;;;;;14.83;61.89;94653.38;4987336;28;20250;-69
2023/05/22 03:42:00;;;;;;;5.65;4.60;;;;;;;14.89;62.31;94649.97;4992255;28;20239;-66
2023/05/22 03:44:26;;;;;;;5.32;4.60;;;;;;;14.67;62.54;94662.34;4998816;28;20953;-68
2023/05/22 03:46:51;;;;;;;5.38;4.80;;;;;;;14.47;63.29;94654.97;4990136;28;20273;-67
2023/05/22 03:49:17;;;;;;;6.80;4.78;;;;;;;14.52;63.30;94660.56;5009527;28;20270;-68
2023/05/22 03:51:42;;;;;;;4.65;4.15;;;;;;;14.66;62.97;94655.44;5007819;28;20233;-68
2023/05/22 03:54:07;;;;;;;4.95;4.32;;;;;;;14.75;62.38;94659.59;5008435;28;20281;-68
2023/05/22 03:56:33;;;;;;;5.40;4.88;;;;;;;14.80;62.56;94659.88;5009659;28;20225;-71
2023/05/22 03:58:59;;;;;;;5.65;4.95;;;;;;;14.77;62.54;94657.59;5005332;28;20199;-68
2023/05/22 04:01:25;;;;;;;6.00;4.80;;;;;;;14.85;62.21;94660.13;5007149;28;20219;-67
2023/05/22 04:03:51;;;;;;;5.97;4.50;;;;;;;14.89;61.86;94658.78;5007289;28;20306;-68
2023/05/22 04:06:20;;;;;;;4.93;4.43;;;;;;;14.77;62.36;94662.88;5007650;28;20298;-66
2023/05/22 04:08:47;;;;;;;6.18;4.70;;;;;;;14.71;62.54;94671.59;5008952;28;20246;-68
2023/05/22 04:11:14;;;;;;;4.90;4.38;;;;;;;14.93;61.78;94657.38;5007719;28;20222;-68
2023/05/22 04:13:40;;;;;;;4.75;4.30;;;;;;;14.94;61.96;94664.31;5010218;28;20231;-68
2023/05/22 04:16:06;;;;;;;6.18;4.72;;;;;;;15.05;61.97;94667.47;5008686;28;20298;-69
2023/05/22 04:18:31;;;;;;;6.55;4.90;;;;;;;15.11;62.29;94664.91;5007440;28;20298;-69
2023/05/22 04:20:57;;;;;;;5.35;4.82;;;;;;;15.06;61.89;94666.47;5006567;28;20289;-67
2023/05/22 04:23:22;;;;;;;5.78;4.45;;;;;;;15.07;61.65;94660.16;5007158;28;20230;-67
2023/05/22 04:25:48;;;;;;;7.75;5.55;;;;;;;15.25;61.34;94657.91;5005398;28;20211;-67
2023/05/22 04:28:16;;;;;;;5.32;4.82;;;;;;;15.41;61.31;94668.25;5007346;28;20218;-69
2023/05/22 04:30:42;;;;;;;9.52;7.85;;;;;;;15.44;60.91;94657.25;4996595;28;20223;-67
2023/05/22 04:33:07;;;;;;;7.93;6.38;;;;;;;15.32;61.08;94668.56;5001578;28;20232;-67
2023/05/22 04:35:34;;;;;;;7.20;5.65;;;;;;;15.44;60.73;94667.03;4993155;28;20211;-68
2023/05/22 04:38:02;;;;;;;5.65;5.10;;;;;;;15.44;60.77;94670.50;5008548;28;20596;-68
2023/05/22 04:40:32;;;;;;;6.65;5.07;;;;;;;15.52;60.56;94671.38;5002029;28;20244;-67
2023/05/22 04:42:58;;;;;;;5.82;5.30;;;;;;;15.57;60.73;94671.63;5005959;28;20297;-70
2023/05/22 04:45:24;;;;;;;5.45;4.72;;;;;;;15.59;60.48;94674.94;4985701;28;20223;-67
2023/05/22 04:47:51;;;;;;;5.68;5.07;;;;;;;15.64;60.60;94670.69;5008396;28;20257;-70
2023/05/22 04:50:17;;;;;;;5.70;5.07;;;;;;;15.76;60.32;94678.97;5001093;28;20214;-68
2023/05/22 04:52:43;;;;;;;5.95;4.75;;;;;;;15.81;60.09;94671.25;5000082;28;20246;-69
2023/05/22 04:55:10;;;;;;;5.40;4.90;;;;;;;15.81;60.20;94676.56;5019635;28;20358;-69
2023/05/22 04:57:37;;;;;;;6.22;5.15;;;;;;;15.70;60.14;94669.13;5007041;28;20219;-69
2023/05/22 05:00:04;;;;;;;5.97;5.38;;;;;;;15.78;60.01;94676.94;5008381;28;20215;-68
2023/05/22 05:02:29;;;;;;;6.65;5.93;;;;;;;15.92;59.75;94679.69;5006676;28;20227;-69
2023/05/22 05:04:55;;;;;;;7.57;5.38;;;;;;;15.99;59.86;94675.28;5006484;28;20541;-68
2023/05/22 05:07:22;;;;;;;6.78;5.80;;;;;;;16.11;59.24;94676.34;5005203;28;20219;-68
2023/05/22 05:09:48;;;;;;;5.80;5.20;;;;;;;16.12;58.88;94677.16;5007884;28;20258;-69
2023/05/22 05:12:14;;;;;;;8.25;5.70;;;;;;;16.21;58.76;94673.38;5001942;28;20594;-68
2023/05/22 05:14:40;;;;;;;7.43;5.20;;;;;;;16.24;58.80;94684.41;5008859;28;20318;-68
2023/05/22 05:17:06;;;;;;;6.22;5.63;;;;;;;16.32;58.78;94686.91;5006250;28;20274;-69
2023/05/22 05:19:31;;;;;;;6.75;5.55;;;;;;;16.37;58.79;94680.19;5002936;28;20861;-68
2023/05/22 05:21:56;;;;;;;5.88;5.38;;;;;;;16.42;58.68;94683.09;4998134;28;20266;-67
2023/05/22 05:24:22;;;;;;;5.45;4.95;;;;;;;16.30;58.90;94681.00;5007251;28;20214;-68
2023/05/22 05:26:49;;;;;;;6.50;5.82;;;;;;;16.34;58.95;94676.09;5004802;28;20329;-68
2023/05/22 05:29:15;;;;;;;5.82;5.28;;;;;;;16.56;58.61;94681.31;5001864;28;20538;-68
2023/05/22 05:31:41;;;;;;;5.40;4.90;;;;;;;16.43;58.68;94679.41;4988819;28;20520;-68
2023/05/22 05:34:06;;;;;;;5.40;4.78;;;;;;;16.38;57.93;94681.81;5016113;28;20309;-67
2023/05/22 05:36:31;;;;;;;3.92;3.60;;;;;;;16.60;56.16;94685.19;5001298;28;20698;-67
2023/05/22 05:38:57;;;;;;;5.05;4.25;;;;;;;16.66;54.84;94687.09;5007089;28;20227;-68
2023/05/22 05:41:23;;;;;;;4.68;3.88;;;;;;;16.61;54.54;94684.19;5006863;28;20342;-67
2023/05/22 05:43:51;;;;;;;4.00;3.65;;;;;;;16.64;54.89;94687.28;5001030;28;20183;-67
2023/05/22 05:46:17;;;;;;;5.10;4.28;;;;;;;16.64;55.63;94684.63;5005124;28;20222;-66
2023/05/22 05:48:42;;;;;;;5.88;4.20;;;;;;;16.75;55.56;94685.88;4992816;28;20264;-66
2023/05/22 05:51:08;;;;;;;5.45;4.70;;;;;;;16.74;56.18;94681.59;5000739;28;20239;-66
2023/05/22 05:53:35;;;;;;;4.68;4.28;;;;;;;16.77;55.79;94681.25;5004384;28;20698;-66
2023/05/22 05:56:01;;;;;;;4.90;4.20;;;;;;;16.86;55.50;94684.53;5001522;28;20221;-69
2023/05/22 05:58:27;;;;;;;5.68;4.50;;;;;;;16.92;55.41;94689.03;4997151;28;20186;-69
2023/05/22 06:00:52;;;;;;;5.00;4.03;;;;;;;17.03;55.29;94693.81;5011747;28;20286;-69
2023/05/22 06:03:18;;;;;;;3.50;3.20;;;;;;;17.08;54.55;94686.06;5002033;28;20240;-69
2023/05/22 06:05:44;;;;;;;4.25;3.78;;;;;;;17.13;53.47;94677.47;4998592;28;20316;-68
2023/05/22 06:08:10;;;;;;;6.18;3.97;;;;;;;17.01;54.28;94679.91;5005085;28;20666;-67
2023/05/22 06:10:36;;;;;;;4.68;4.20;;;;;;;17.04;54.62;94681.34;5005993;28;20241;-68
2023/05/22 06:13:01;;;;;;;6.38;3.92;;;;;;;16.98;52.99;94689.09;5001206;28;20272;-67
2023/05/22 06:15:27;;;;;;;3.60;3.30;;;;;;;16.97;53.42;94692.78;5003638;28;21068;-65
2023/05/22 06:17:53;;;;;;;4.55;3.60;;;;;;;16.97;53.27;94691.94;5005316;28;20219;-68
2023/05/22 06:20:18;;;;;;;3.75;2.97;;;;;;;17.04;51.81;94682.16;5007162;28;20315;-68
2023/05/22 06:22:44;;;;;;;2.83;2.60;;;;;;;17.07;50.08;94692.38;5002980;28;21017;-69
2023/05/22 06:25:09;;;;;;;2.67;2.42;;;;;;;17.12;49.66;94689.94;5013325;28;20889;-69
2023/05/22 06:27:35;;;;;;;3.22;2.92;;;;;;;17.24;49.90;94684.03;4999213;28;20229;-68
2023/05/22 06:30:01;;;;;;;3.72;2.95;;;;;;;17.35;48.85;94686.13;5002792;28;20249;-68
2023/05/22 06:32:26;;;;;;;3.13;2.70;;;;;;;17.35;48.97;94694.09;4993677;28;20745;-67
2023/05/22 06:34:52;;;;;;;3.00;2.67;;;;;;;17.40;48.19;94681.84;4983266;28;20191;-66
2023/05/22 06:37:17;;;;;;;3.28;2.63;;;;;;;17.36;48.22;94690.41;4999753;28;20227;-70
2023/05/22 06:39:43;;;;;;;5.30;2.88;;;;;;;17.39;48.49;94680.19;5002441;28;20258;-68
2023/05/22 06:42:08;;;;;;;4.65;3.20;;;;;;;17.44;48.92;94682.25;4994426;28;20273;-72
2023/05/22 06:44:34;;;;;;;3.85;2.88;;;;;;;17.54;48.93;94690.66;5005350;28;20272;-71
2023/05/22 06:46:59;;;;;;;3.75;3.20;;;;;;;17.66;49.27;94679.41;5002909;28;20191;-71
2023/05/22 06:49:25;;;;;;;4.03;3.33;;;;;;;17.97;48.62;94687.63;5002054;28;20183;-67
2023/05/22 06:51:50;;;;;;;3.92;3.40;;;;;;;17.89;48.83;94682.50;5003550;28;20306;-71
2023/05/22 06:54:16;;;;;;;3.28;2.97;;;;;;;17.92;49.45;94682.09;5000090;28;20229;-67
2023/05/22 06:56:42;;;;;;;3.63;2.80;;;;;;;18.19;48.15;94685.56;5003093;28;20211;-67
2023/05/22 06:59:09;;;;;;;3.67;2.97;;;;;;;18.08;47.76;94687.00;5000693;28;20213;-68
2023/05/22 07:01:35;;;;;;;3.50;3.20;;;;;;;18.07;47.91;94680.06;5015183;28;20195;-72
2023/05/22 07:04:03;;;;;;;3.10;2.83;;;;;;;18.28;47.70;94692.31;5001328;28;20755;-68
2023/05/22 07:06:32;;;;;;;3.92;3.10;;;;;;;18.40;47.35;94684.50;5008698;28;20219;-67
2023/05/22 07:08:58;;;;;;;4.28;2.88;;;;;;;18.57;47.50;94697.34;5003266;28;20307;-69
2023/05/22 07:11:23;;;;;;;5.47;3.03;;;;;;;18.64;47.10;94682.19;5002184;28;20625;-68
2023/05/22 07:13:49;;;;;;;3.33;2.63;;;;;;;18.79;46.72;94690.78;5002842;28;20208;-72
2023/05/22 07:16:15;;;;;;;5.10;3.33;;;;;;;18.46;46.20;94681.00;5008124;28;20226;-71
2023/05/22 07:18:40;;;;;;;5.22;3.45;;;;;;;18.49;46.23;94685.91;5003719;28;20340;-72
2023/05/22 07:21:06;;;;;;;4.15;3.38;;;;;;;18.57;45.85;94686.72;5008611;28;20219;-71
2023/05/22 07:23:31;;;;;;;4.50;3.38;;;;;;;18.56;45.67;94685.09;5009468;28;20223;-72
2023/05/22 07:25:57;;;;;;;5.55;3.92;;;;;;;18.79;45.27;94684.63;5009207;28;20179;-72
2023/05/22 07:28:22;;;;;;;6.65;3.80;;;;;;;18.43;46.31;94681.41;5007704;28;20229;-72
2023/05/22 07:30:48;;;;;;;3.60;3.10;;;;;;;18.56;45.46;94690.41;5004034;28;20226;-68
2023/05/22 07:33:13;;;;;;;4.18;3.08;;;;;;;18.77;45.94;94694.69;5004725;28;20233;-70
2023/05/22 07:35:38;;;;;;;3.90;3.50;;;;;;;18.83;46.35;94686.66;5008682;28;20245;-70
2023/05/22 07:38:04;;;;;;;3.78;3.28;;;;;;;18.94;46.59;94685.19;5006598;28;20191;-69
2023/05/22 07:40:30;;;;;;;2.80;2.60;;;;;;;19.03;46.32;94685.75;5005601;28;20185;-68
2023/05/22 07:42:55;;;;;;;2.88;2.45;;;;;;;19.11;45.39;94682.84;5005272;28;20214;-68
2023/05/22 07:45:20;;;;;;;3.03;2.70;;;;;;;19.21;45.02;94683.19;5006764;28;20229;-67
2023/05/22 07:47:46;;;;;;;3.30;2.97;;;;;;;19.21;44.29;94675.19;5006825;28;20227;-67
2023/05/22 07:50:11;;;;;;;3.70;3.28;;;;;;;19.20;44.90;94686.09;5001691;28;20187;-68
2023/05/22 07:52:37;;;;;;;3.50;2.80;;;;;;;19.22;44.78;94682.19;5003144;28;20234;-69
2023/05/22 07:55:03;;;;;;;3.60;3.30;;;;;;;19.28;45.21;94677.84;5009716;28;20218;-68
2023/05/22 07:57:28;;;;;;;4.85;3.00;;;;;;;19.33;45.40;94678.03;5001959;28;20911;-68
2023/05/22 07:59:54;;;;;;;3.90;3.38;;;;;;;19.43;44.40;94674.88;4987798;28;20250;-68
2023/05/22 08:02:21;;;;;;;3.47;2.67;;;;;;;19.55;43.78;94676.63;4981251;28;20315;-67
2023/05/22 08:04:47;;;;;;;3.20;2.80;;;;;;;19.63;44.77;94670.22;5003960;28;20180;-67
2023/05/22 08:07:13;;;;;;;3.30;2.90;;;;;;;19.72;43.54;94668.94;4984161;28;20229;-68
2023/05/22 08:09:38;;;;;;;4.90;2.50;;;;;;;19.91;43.08;94669.00;4983209;28;20220;-69
2023/05/22 08:12:05;;;;;;;3.50;2.70;;;;;;;19.98;43.06;94673.25;4988032;28;20251;-67
2023/05/22 08:14:31;;;;;;;2.65;2.45;;;;;;;20.05;42.55;94675.88;4989370;28;20219;-70
2023/05/22 08:16:57;;;;;;;2.97;2.30;;;;;;;20.11;41.95;94664.31;5001512;28;20190;-69
2023/05/22 08:19:23;;;;;;;3.08;2.78;;;;;;;20.19;41.80;94668.56;4988688;28;20226;-68
2023/05/22 08:21:51;;;;;;;3.17;2.50;;;;;;;20.27;41.55;94660.28;4981137;28;20212;-69
2023/05/22 08:24:17;;;;;;;3.28;2.80;;;;;;;20.42;41.80;94665.25;4987246;28;20251;-68
2023/05/22 08:26:42;;;;;;;3.13;2.80;;;;;;;20.54;41.63;94668.88;4985391;28;20271;-69
2023/05/22 08:29:08;;;;;;;2.80;2.50;;;;;;;20.62;40.82;94668.56;5014278;28;20184;-68
2023/05/22 08:31:34;;;;;;;3.00;2.70;;;;;;;20.68;40.24;94669.53;4983410;28;20185;-68
2023/05/22 08:34:01;;;;;;;2.97;2.50;;;;;;;20.74;40.69;94670.50;4996432;28;20369;-67
2023/05/22 08:36:30;;;;;;;2.33;2.13;;;;;;;20.90;39.69;94669.88;5002942;28;20665;-68
2023/05/22 08:38:56;;;;;;;2.10;1.90;;;;;;;21.08;37.13;94672.53;4983349;28;20225;-67
2023/05/22 08:41:21;;;;;;;2.20;2.00;;;;;;;21.08;37.39;94667.19;4986653;28;20215;-67
2023/05/22 08:43:47;;;;;;;2.55;2.35;;;;;;;21.03;37.59;94653.69;4984871;28;20632;-67
2023/05/22 08:46:14;;;;;;;2.47;2.25;;;;;;;21.19;38.28;94668.28;4989672;28;20232;-67
2023/05/22 08:48:41;;;;;;;3.08;2.30;;;;;;;21.35;38.62;94667.66;4983824;28;20220;-68
2023/05/22 08:51:07;;;;;;;2.50;1.67;;;;;;;21.41;34.38;94657.97;4984593;28;20310;-68
2023/05/22 08:53:35;;;;;;;1.70;1.60;;;;;;;21.63;32.96;94660.91;4986782;28;20255;-67
2023/05/22 08:56:03;;;;;;;1.67;1.55;;;;;;;21.67;33.43;94659.41;4990636;28;20198;-66
2023/05/22 08:58:31;;;;;;;2.15;1.83;;;;;;;21.67;33.24;94666.63;4998303;28;20188;-68
2023/05/22 09:00:57;;;;;;;1.90;1.73;;;;;;;21.65;33.03;94656.16;4985328;28;20266;-72
2023/05/22 09:03:27;;;;;;;2.92;1.98;;;;;;;21.68;33.34;94645.00;4985090;28;20244;-70
2023/05/22 09:05:53;;;;;;;1.95;1.85;;;;;;;21.76;33.67;94657.22;4982877;28;20227;-70
2023/05/22 09:08:19;;;;;;;1.75;1.63;;;;;;;21.76;33.56;94652.69;4983619;28;20239;-71
2023/05/22 09:10:44;;;;;;;2.63;2.30;;;;;;;21.69;34.12;94653.84;4986235;28;20238;-70
2023/05/22 09:13:18;;;;;;;2.15;1.95;;;;;;;21.52;34.79;94662.53;4993890;28;20770;-70
2023/05/22 09:15:43;;;;;;;1.58;1.48;;;;;;;21.46;34.31;94655.38;4989345;28;20223;-72
2023/05/22 09:18:09;;;;;;;2.38;1.70;;;;;;;21.52;35.18;94657.16;4986783;28;20257;-70
2023/05/22 09:20:36;;;;;;;3.28;1.83;;;;;;;21.56;33.01;94642.28;4985184;28;20246;-71
2023/05/22 09:23:16;;;;;;;1.92;1.83;;;;;;;21.76;33.10;94646.53;4984852;28;20218;-69
2023/05/22 09:25:43;;;;;;;1.73;1.63;;;;;;;21.87;32.71;94651.06;4997053;28;20179;-71
2023/05/22 09:28:10;;;;;;;2.83;1.90;;;;;;;21.86;33.75;94644.06;4987877;28;20231;-70
2023/05/22 09:30:36;;;;;;;1.80;1.70;;;;;;;21.82;34.96;94644.78;4998900;28;20238;-69
2023/05/22 09:33:03;;;;;;;1.80;1.60;;;;;;;21.79;34.49;94651.41;4986624;28;20714;-70
2023/05/22 09:35:31;;;;;;;2.70;1.85;;;;;;;21.82;34.05;94648.28;4995405;28;20234;-70
2023/05/22 09:37:57;;;;;;;3.15;1.85;;;;;;;21.85;35.24;94647.81;5001664;28;20203;-71
2023/05/22 09:40:23;;;;;;;3.47;2.10;;;;;;;21.93;35.56;94638.63;4996136;28;20224;-69
2023/05/22 09:42:48;;;;;;;2.70;2.05;;;;;;;22.05;34.87;94646.66;5000394;28;20682;-70
2023/05/22 09:45:20;;;;;;;2.80;2.30;;;;;;;22.06;35.81;94646.44;5005894;28;20238;-69
2023/05/22 09:47:49;;;;;;;1.95;1.85;;;;;;;22.07;35.69;94653.41;5003212;28;20226;-70
2023/05/22 09:50:15;;;;;;;2.72;1.80;;;;;;;22.02;35.11;94654.13;5004147;28;20202;-69
2023/05/22 09:52:43;;;;;;;2.13;1.83;;;;;;;22.02;36.52;94651.44;5005081;28;20211;-69
2023/05/22 09:55:09;;;;;;;2.47;2.17;;;;;;;21.93;36.89;94657.38;5005131;28;20227;-69
2023/05/22 09:57:43;;;;;;;3.00;2.03;;;;;;;21.84;34.88;94664.94;5002201;28;20592;-69
2023/05/22 10:00:12;;;;;;;2.58;2.00;;;;;;;21.75;36.37;94658.25;5006910;28;20277;-69
2023/05/22 10:02:43;;;;;;;2.30;2.10;;;;;;;21.75;36.03;94658.25;5007013;28;20686;-69
2023/05/22 10:05:09;;;;;;;2.72;2.47;;;;;;;21.69;35.47;94657.31;5001339;28;20302;-69
2023/05/22 10:07:39;;;;;;;3.20;2.90;;;;;;;21.64;37.73;94653.69;5005053;28;20187;-69
2023/05/22 10:10:10;;;;;;;2.58;2.30;;;;;;;21.54;38.63;94654.25;5006416;28;20230;-69
2023/05/22 10:12:42;;;;;;;2.50;2.30;;;;;;;21.62;39.23;94655.78;5002689;28;20227;-69
2023/05/22 10:15:12;;;;;;;3.10;2.20;;;;;;;21.65;39.89;94661.50;5004148;28;20231;-69
2023/05/22 10:17:39;;;;;;;2.30;2.10;;;;;;;21.75;40.37;94651.03;5001302;28;20767;-70
2023/05/22 10:20:07;;;;;;;2.83;2.30;;;;;;;21.86;40.29;94651.28;5004309;28;20187;-70
2023/05/22 10:22:36;;;;;;;2.45;2.25;;;;;;;21.91;40.60;94656.78;4999489;28;20171;-69
2023/05/22 10:25:02;;;;;;;2.70;2.28;;;;;;;21.89;39.89;94650.81;5003293;28;20220;-69
2023/05/22 10:27:28;;;;;;;3.20;2.45;;;;;;;21.80;39.38;94647.69;5003843;28;20224;-69
2023/05/22 10:30:27;;;;;;;2.63;2.42;;;;;;;21.58;40.77;94661.59;5003562;28;20736;-70
2023/05/22 10:33:02;;;;;;;4.22;2.50;;;;;;;21.29;40.77;94667.75;4963737;28;20240;-70
2023/05/22 10:35:50;;;;;;;2.72;2.47;;;;;;;21.04;42.53;94687.41;4951248;28;20253;-70
2023/05/22 10:38:28;;;;;;;8.35;3.15;;;;;;;20.77;48.79;94694.94;4953321;28;20484;-70
2023/05/22 10:40:54;;;;;;;4.47;2.78;;;;;;;20.30;51.77;94702.56;4952016;28;20310;-69
2023/05/22 10:43:21;;;;;;;4.15;3.30;;;;;;;20.25;58.46;94710.41;4950954;28;20307;-66
2023/05/22 10:45:47;;;;;;;4.32;3.63;;;;;;;20.23;59.04;94693.78;4966354;28;20347;-67
2023/05/22 10:48:13;;;;;;;3.30;2.97;;;;;;;20.03;57.11;94688.63;4962948;28;20306;-68
2023/05/22 10:50:39;;;;;;;4.18;3.30;;;;;;;19.86;58.18;94684.84;4969422;28;20227;-68
2023/05/22 10:53:31;;;;;;;3.33;3.03;;;;;;;19.56;59.62;94686.25;4951113;28;20299;-69
2023/05/22 10:56:01;;;;;;;4.28;2.78;;;;;;;19.54;59.26;94677.69;4964794;28;20196;-67
2023/05/22 10:58:30;;;;;;;3.22;2.92;;;;;;;19.63;57.60;94672.91;4966063;28;20901;-71
2023/05/22 11:01:16;;;;;;;6.20;3.15;;;;;;;19.81;56.68;94672.19;4949164;28;20228;-70
2023/05/22 11:03:50;;;;;;;3.58;3.05;;;;;;;20.14;57.13;94666.56;4952633;28;20286;-67
2023/05/22 11:06:31;;;;;;;6.15;3.50;;;;;;;20.49;56.50;94666.00;4950775;28;20219;-67
2023/05/22 11:08:58;;;;;;;3.78;3.22;;;;;;;20.67;55.82;94665.22;4952310;28;20232;-72
2023/05/22 11:11:25;;;;;;;3.63;2.88;;;;;;;20.85;57.06;94662.56;4980485;28;20338;-72
2023/05/22 11:14:02;;;;;;;3.60;3.15;;;;;;;20.92;53.68;94657.13;5013860;28;20691;-68
2023/05/22 11:16:33;;;;;;;2.85;2.60;;;;;;;21.11;54.59;94650.69;5002861;28;20265;-72
2023/05/22 11:19:09;;;;;;;3.80;3.40;;;;;;;21.21;54.30;94657.38;4997993;28;20219;-70
2023/05/22 11:21:43;;;;;;;3.50;3.20;;;;;;;21.32;53.25;94660.09;5002275;28;20572;-73
2023/05/22 11:24:09;;;;;;;4.95;3.08;;;;;;;21.34;55.47;94682.06;4998101;28;20246;-72
2023/05/22 11:26:35;;;;;;;3.63;3.25;;;;;;;21.24;57.52;94691.69;5006017;28;20222;-71
2023/05/22 11:29:00;;;;;;;2.47;2.28;;;;;;;21.14;48.70;94686.84;5004019;28;20252;-69
2023/05/22 11:31:28;;;;;;;2.30;2.08;;;;;;;20.64;49.26;94698.56;5003439;28;20186;-69
2023/05/22 11:33:54;;;;;;;2.28;2.08;;;;;;;20.33;47.09;94695.97;5004299;28;20233;-73
2023/05/22 11:36:19;;;;;;;1.92;1.80;;;;;;;19.89;48.36;94711.94;5000464;28;20253;-71